createdAt,value
2022-10-05T00:00:30.354Z,14.50
2022-10-05T00:02:57.413Z,14.60
2022-10-05T00:05:29.399Z,12.87
2022-10-05T00:08:04.594Z,12.30
2022-10-05T00:10:31.625Z,14.50
2022-10-05T00:12:58.446Z,11.90
2022-10-05T00:15:25.423Z,14.80
2022-10-05T00:17:52.695Z,14.60
2022-10-05T00:20:26.883Z,13.57
2022-10-05T00:22:58.728Z,17.37
2022-10-05T00:25:25.813Z,15.20
2022-10-05T00:27:58.954Z,17.13
2022-10-05T00:30:31.007Z,14.33
2022-10-05T00:32:59.765Z,11.87
2022-10-05T00:35:29.537Z,16.57
2022-10-05T00:37:56.779Z,14.93
2022-10-05T00:40:51.156Z,16.17
2022-10-05T00:44:08.504Z,14.33
2022-10-05T00:46:52.257Z,12.33
2022-10-05T00:49:56.578Z,19.17
2022-10-05T00:52:50.893Z,11.90
2022-10-05T00:55:41.399Z,18.70
2022-10-05T00:58:11.126Z,14.20
2022-10-05T01:01:05.083Z,15.67
2022-10-05T01:03:55.236Z,14.70
2022-10-05T01:06:48.392Z,12.97
2022-10-05T01:09:35.187Z,11.80
2022-10-05T01:12:37.090Z,14.50
2022-10-05T01:15:19.615Z,16.47
2022-10-05T01:18:05.629Z,12.20
2022-10-05T01:20:51.845Z,13.47
2022-10-05T01:23:27.910Z,13.13
2022-10-05T01:26:28.778Z,15.23
2022-10-05T01:29:03.332Z,14.17
2022-10-05T01:31:40.687Z,14.43
2022-10-05T01:34:37.509Z,17.67
2022-10-05T01:37:13.632Z,13.10
2022-10-05T01:39:48.148Z,14.03
2022-10-05T01:42:41.536Z,15.63
2022-10-05T01:45:20.605Z,15.80
2022-10-05T01:48:01.118Z,18.10
2022-10-05T01:50:52.525Z,16.13
2022-10-05T01:53:46.687Z,17.80
2022-10-05T01:56:42.660Z,18.57
2022-10-05T01:59:21.278Z,15.70
2022-10-05T02:02:09.674Z,17.40
2022-10-05T02:05:06.462Z,16.33
2022-10-05T02:07:42.948Z,18.23
2022-10-05T02:10:59.491Z,15.47
2022-10-05T02:13:33.983Z,19.17
2022-10-05T02:16:17.068Z,19.17
2022-10-05T02:18:56.636Z,19.00
2022-10-05T02:21:24.689Z,17.07
2022-10-05T02:23:57.058Z,16.27
2022-10-05T02:26:26.490Z,16.60
2022-10-05T02:29:00.025Z,16.47
2022-10-05T02:31:39.425Z,18.03
2022-10-05T02:34:27.017Z,17.63
2022-10-05T02:37:12.450Z,15.63
2022-10-05T02:39:55.002Z,15.63
2022-10-05T02:42:31.142Z,18.57
2022-10-05T02:45:18.333Z,20.40
2022-10-05T02:48:03.932Z,18.30
2022-10-05T02:50:40.204Z,19.80
2022-10-05T02:53:15.210Z,17.43
2022-10-05T02:56:21.999Z,16.27
2022-10-05T02:59:11.660Z,15.90
2022-10-05T03:02:13.535Z,17.37
2022-10-05T03:05:02.038Z,15.33
2022-10-05T03:08:07.588Z,17.73
2022-10-05T03:10:34.365Z,16.90
2022-10-05T03:13:28.332Z,16.60
2022-10-05T03:16:10.471Z,18.43
2022-10-05T03:18:52.259Z,17.13
2022-10-05T03:21:34.087Z,15.10
2022-10-05T03:24:06.779Z,17.37
2022-10-05T03:26:43.787Z,14.70
2022-10-05T03:29:10.987Z,17.00
2022-10-05T03:31:46.782Z,15.33
2022-10-05T03:34:28.291Z,17.13
2022-10-05T03:37:23.146Z,16.63
2022-10-05T03:40:19.865Z,17.23
2022-10-05T03:42:59.160Z,15.97
2022-10-05T03:45:48.454Z,18.07
2022-10-05T03:48:28.493Z,15.00
2022-10-05T03:51:01.822Z,17.40
2022-10-05T03:53:44.279Z,23.53
2022-10-05T03:56:25.741Z,15.67
2022-10-05T03:59:08.355Z,17.10
2022-10-05T04:01:48.948Z,16.03
2022-10-05T04:04:39.868Z,15.23
2022-10-05T04:07:26.072Z,16.33
2022-10-05T04:09:54.873Z,17.73
2022-10-05T04:12:33.894Z,16.33
2022-10-05T04:15:21.565Z,19.80
2022-10-05T04:17:56.352Z,19.00
2022-10-05T04:20:36.076Z,18.03
2022-10-05T04:23:15.136Z,15.60
2022-10-05T04:25:53.055Z,16.70
2022-10-05T04:28:31.936Z,16.00
2022-10-05T04:31:03.816Z,16.80
2022-10-05T04:33:32.235Z,15.67
2022-10-05T04:36:36.434Z,17.77
2022-10-05T04:39:23.805Z,17.87
2022-10-05T04:41:50.893Z,15.33
2022-10-05T04:44:35.951Z,17.73
2022-10-05T04:47:15.198Z,16.47
2022-10-05T04:49:44.935Z,15.90
2022-10-05T04:52:32.943Z,19.70
2022-10-05T04:55:14.428Z,15.77
2022-10-05T04:57:54.820Z,15.70
2022-10-05T05:01:07.852Z,15.43
2022-10-05T05:03:37.871Z,15.17
2022-10-05T05:06:22.616Z,17.70
2022-10-05T05:09:13.727Z,16.87
2022-10-05T05:12:15.921Z,17.07
2022-10-05T05:15:07.431Z,16.67
2022-10-05T05:18:03.356Z,16.13
2022-10-05T05:20:49.049Z,15.23
2022-10-05T05:23:46.635Z,15.97
2022-10-05T05:26:22.428Z,15.47
2022-10-05T05:29:05.743Z,16.13
2022-10-05T05:31:41.696Z,16.50
2022-10-05T05:34:45.710Z,17.43
2022-10-05T05:37:21.667Z,15.77
2022-10-05T05:40:07.185Z,16.13
2022-10-05T05:42:37.592Z,16.03
2022-10-05T05:45:16.727Z,17.87
2022-10-05T05:47:53.944Z,17.30
2022-10-05T05:50:48.456Z,18.20
2022-10-05T05:53:21.285Z,16.27
2022-10-05T05:55:54.057Z,15.13
2022-10-05T05:58:29.490Z,15.70
2022-10-05T06:01:02.037Z,17.97
2022-10-05T06:03:41.059Z,18.00
2022-10-05T06:06:14.436Z,17.47
2022-10-05T06:09:06.856Z,17.40
2022-10-05T06:11:43.186Z,15.40
2022-10-05T06:14:30.306Z,18.53
2022-10-05T06:17:17.206Z,17.77
2022-10-05T06:19:48.454Z,18.03
2022-10-05T06:22:19.297Z,18.43
2022-10-05T06:25:12.217Z,15.37
2022-10-05T06:28:11.923Z,14.50
2022-10-05T06:30:49.485Z,16.13
2022-10-05T06:33:38.012Z,14.87
2022-10-05T09:53:12.214Z,6.10
2022-10-05T09:56:14.049Z,4.77
2022-10-05T09:59:11.261Z,3.37
2022-10-05T10:02:20.627Z,4.47
2022-10-05T10:05:08.978Z,5.97
2022-10-05T10:07:49.007Z,5.00
2022-10-05T10:10:15.769Z,5.20
2022-10-05T10:13:04.574Z,4.10
2022-10-05T10:15:50.069Z,3.77
2022-10-05T10:18:49.905Z,4.53
2022-10-05T10:21:45.032Z,4.10
2022-10-05T10:24:15.267Z,4.68
2022-10-05T10:27:06.746Z,5.83
2022-10-05T10:29:42.598Z,3.90
2022-10-05T10:32:28.030Z,4.83
2022-10-05T10:35:25.564Z,5.50
2022-10-05T10:38:30.395Z,4.30
2022-10-05T10:41:48.516Z,4.73
2022-10-05T10:44:37.632Z,4.97
2022-10-05T10:47:25.074Z,3.87
2022-10-05T10:50:01.235Z,4.20
2022-10-05T10:52:50.574Z,6.17
2022-10-05T10:55:30.256Z,5.23
2022-10-05T10:58:10.213Z,5.03
2022-10-05T11:00:50.187Z,6.53
2022-10-05T11:03:47.010Z,5.50
2022-10-05T11:06:23.218Z,6.57
2022-10-05T11:09:22.832Z,5.30
2022-10-05T11:12:24.904Z,6.90
2022-10-05T11:18:11.157Z,5.23
2022-10-05T11:21:06.692Z,4.77
2022-10-05T11:24:15.482Z,4.93
2022-10-05T11:27:28.860Z,5.43
2022-10-05T11:30:10.998Z,3.37
2022-10-05T11:32:57.784Z,9.67
2022-10-05T11:35:49.610Z,3.57
2022-10-05T11:38:35.243Z,5.07
2022-10-05T11:41:50.418Z,3.77
2022-10-05T11:44:43.135Z,5.27
2022-10-05T11:47:56.276Z,7.83
2022-10-05T11:50:30.665Z,5.30
2022-10-05T11:53:23.041Z,5.50
2022-10-05T11:56:19.205Z,4.40
2022-10-05T11:59:02.282Z,4.70
2022-10-05T12:01:56.266Z,3.97
2022-10-05T12:04:37.085Z,4.13
2022-10-05T12:07:17.821Z,4.50
2022-10-05T12:10:18.459Z,5.43
2022-10-05T12:12:52.771Z,3.73
2022-10-05T12:15:50.288Z,3.17
2022-10-05T12:18:26.933Z,4.07
2022-10-05T12:21:04.910Z,4.90
2022-10-05T12:23:52.333Z,3.83
2022-10-05T12:26:29.170Z,6.10
2022-10-05T12:29:11.979Z,7.10
2022-10-05T12:31:51.216Z,4.60
2022-10-05T12:34:28.949Z,4.63
2022-10-05T13:13:47.775Z,3.50
2022-10-05T13:16:19.520Z,2.90
2022-10-05T13:22:30.060Z,2.70
2022-10-05T13:25:45.132Z,3.40
2022-10-05T13:28:18.258Z,2.50
2022-10-05T15:11:18.321Z,6.53
2022-10-05T15:13:49.972Z,3.83
2022-10-05T15:19:36.715Z,5.60
2022-10-05T15:22:26.538Z,3.40
2022-10-05T15:25:14.406Z,3.93
2022-10-05T15:28:08.448Z,3.60
2022-10-05T19:57:20.969Z,3.87
2022-10-05T19:59:48.424Z,4.20
2022-10-05T20:43:51.304Z,5.70
2022-10-05T20:46:18.162Z,5.47
2022-10-05T20:48:45.875Z,3.23
2022-10-05T20:51:12.782Z,7.03
2022-10-05T20:53:39.602Z,3.20
2022-10-05T20:56:06.497Z,3.57
2022-10-05T20:58:35.994Z,3.07
2022-10-05T21:01:23.593Z,3.87
2022-10-05T21:03:53.248Z,4.70
2022-10-05T21:06:30.173Z,3.30
2022-10-05T21:08:57.270Z,5.77
2022-10-05T21:11:24.406Z,4.27
2022-10-05T21:13:53.434Z,4.20
2022-10-05T21:16:20.927Z,3.87
2022-10-05T21:18:49.166Z,6.80
2022-10-05T21:21:17.432Z,5.00
2022-10-05T21:23:46.003Z,4.63
2022-10-05T21:26:14.024Z,3.73
2022-10-05T21:28:41.793Z,5.07
2022-10-05T21:31:09.725Z,4.97
2022-10-05T21:33:36.850Z,3.20
2022-10-05T21:36:04.353Z,3.07
2022-10-05T21:38:31.849Z,3.80
2022-10-05T21:41:11.645Z,3.90
2022-10-05T21:43:39.697Z,4.63
2022-10-05T21:46:09.237Z,2.90
2022-10-05T21:48:40.053Z,2.73
2022-10-05T21:51:16.706Z,5.93
2022-10-05T21:56:38.760Z,5.43
2022-10-05T21:59:09.574Z,2.80
2022-10-05T22:01:37.056Z,2.43
2022-10-05T22:04:06.419Z,1.70
2022-10-05T22:09:06.197Z,1.20
2022-10-05T22:11:33.887Z,0.87
2022-10-05T22:14:03.962Z,0.97
2022-10-05T22:16:35.437Z,1.40
2022-10-05T22:19:10.730Z,1.13
2022-10-05T22:21:42.257Z,1.23
2022-10-05T22:24:14.005Z,1.50
2022-10-05T22:29:28.092Z,1.33
2022-10-05T22:32:00.449Z,1.23
2022-10-05T22:37:14.153Z,2.73
2022-10-05T22:39:49.724Z,2.58
2022-10-05T22:42:17.052Z,2.38
2022-10-05T22:44:45.342Z,2.63
2022-10-05T22:47:18.875Z,2.88
2022-10-05T22:49:47.442Z,3.17
2022-10-05T22:52:14.745Z,2.78
2022-10-05T22:54:41.875Z,2.13
2022-10-05T22:57:09.018Z,4.27
2022-10-05T22:59:36.138Z,1.53
2022-10-05T23:02:03.402Z,1.90
2022-10-05T23:07:13.001Z,2.38
2022-10-05T23:09:40.266Z,2.75
2022-10-05T23:12:08.233Z,2.63
2022-10-05T23:14:35.554Z,1.73
2022-10-05T23:17:02.732Z,2.80
2022-10-05T23:19:40.846Z,3.37
2022-10-05T23:22:08.705Z,5.10
2022-10-05T23:24:36.031Z,3.70
2022-10-05T23:27:03.321Z,2.57
2022-10-05T23:29:30.844Z,2.70
2022-10-05T23:31:58.021Z,4.53
2022-10-05T23:34:27.706Z,4.73
2022-10-05T23:36:54.713Z,1.43
2022-10-05T23:39:21.985Z,2.60
2022-10-05T23:41:49.424Z,4.53
2022-10-05T23:44:21.537Z,3.77
2022-10-05T23:46:48.619Z,3.10
2022-10-05T23:49:18.636Z,2.93
2022-10-05T23:51:45.841Z,3.27
2022-10-05T23:54:13.689Z,2.30
2022-10-05T23:56:41.003Z,1.90
2022-10-05T23:59:08.238Z,4.43
